sensor_id;sensor_type;location;lat;lon;timestamp;temperature;humidity
21298;DHT22;10808;48.010;11.326;2023-12-29T00:01:18;9.50;99.90
21298;DHT22;10808;48.010;11.326;2023-12-29T00:03:46;9.50;99.90
21298;DHT22;10808;48.010;11.326;2023-12-29T00:06:12;9.40;99.90
21298;DHT22;10808;48.010;11.326;2023-12-29T00:08:38;9.40;99.90
21298;DHT22;10808;48.010;11.326;2023-12-29T00:11:04;9.30;99.90
21298;DHT22;10808;48.010;11.326;2023-12-29T00:13:37;9.20;99.90
21298;DHT22;10808;48.010;11.326;2023-12-29T00:16:09;9.10;99.90
21298;DHT22;10808;48.010;11.326;2023-12-29T00:18:38;9.00;99.90
21298;DHT22;10808;48.010;11.326;2023-12-29T00:21:08;9.00;99.90
21298;DHT22;10808;48.010;11.326;2023-12-29T00:23:34;8.90;99.90
21298;DHT22;10808;48.010;11.326;2023-12-29T00:26:00;8.80;99.90
21298;DHT22;10808;48.010;11.326;2023-12-29T00:28:26;8.70;99.90
21298;DHT22;10808;48.010;11.326;2023-12-29T00:30:52;8.70;99.90
21298;DHT22;10808;48.010;11.326;2023-12-29T00:33:24;8.60;99.90
21298;DHT22;10808;48.010;11.326;2023-12-29T00:35:57;8.50;99.90
21298;DHT22;10808;48.010;11.326;2023-12-29T00:38:26;8.50;99.90
21298;DHT22;10808;48.010;11.326;2023-12-29T00:40:52;8.40;99.90
21298;DHT22;10808;48.010;11.326;2023-12-29T00:43:18;8.40;99.90
21298;DHT22;10808;48.010;11.326;2023-12-29T00:45:45;8.30;99.90
21298;DHT22;10808;48.010;11.326;2023-12-29T00:48:11;8.20;99.90
21298;DHT22;10808;48.010;11.326;2023-12-29T00:50:37;8.20;99.90
21298;DHT22;10808;48.010;11.326;2023-12-29T00:53:04;8.10;99.90
21298;DHT22;10808;48.010;11.326;2023-12-29T00:55:30;8.10;99.90
21298;DHT22;10808;48.010;11.326;2023-12-29T00:58:04;8.00;99.90
21298;DHT22;10808;48.010;11.326;2023-12-29T01:00:32;7.90;99.90
21298;DHT22;10808;48.010;11.326;2023-12-29T01:03:06;7.90;99.90
21298;DHT22;10808;48.010;11.326;2023-12-29T01:05:36;7.90;99.90
21298;DHT22;10808;48.010;11.326;2023-12-29T01:08:04;7.90;99.90
21298;DHT22;10808;48.010;11.326;2023-12-29T01:10:30;7.80;99.90
21298;DHT22;10808;48.010;11.326;2023-12-29T01:12:59;7.80;99.90
21298;DHT22;10808;48.010;11.326;2023-12-29T01:15:25;7.70;99.90
21298;DHT22;10808;48.010;11.326;2023-12-29T01:17:53;7.70;99.90
21298;DHT22;10808;48.010;11.326;2023-12-29T01:20:19;7.70;99.90
21298;DHT22;10808;48.010;11.326;2023-12-29T01:22:45;7.70;99.90
21298;DHT22;10808;48.010;11.326;2023-12-29T01:25:11;7.60;99.90
21298;DHT22;10808;48.010;11.326;2023-12-29T01:27:47;7.70;99.90
21298;DHT22;10808;48.010;11.326;2023-12-29T01:30:13;7.70;99.90
21298;DHT22;10808;48.010;11.326;2023-12-29T01:32:39;7.70;99.90
21298;DHT22;10808;48.010;11.326;2023-12-29T01:35:09;7.80;99.90
21298;DHT22;10808;48.010;11.326;2023-12-29T01:37:35;7.90;99.90
21298;DHT22;10808;48.010;11.326;2023-12-29T01:40:01;8.00;99.90
21298;DHT22;10808;48.010;11.326;2023-12-29T01:42:27;8.10;99.90
21298;DHT22;10808;48.010;11.326;2023-12-29T01:44:53;8.20;99.90
21298;DHT22;10808;48.010;11.326;2023-12-29T01:47:20;8.30;99.90
21298;DHT22;10808;48.010;11.326;2023-12-29T01:49:48;8.30;99.90
21298;DHT22;10808;48.010;11.326;2023-12-29T01:52:19;8.40;99.90
21298;DHT22;10808;48.010;11.326;2023-12-29T01:54:49;8.50;99.70
21298;DHT22;10808;48.010;11.326;2023-12-29T01:57:16;8.50;99.40
21298;DHT22;10808;48.010;11.326;2023-12-29T01:59:43;8.60;99.10
21298;DHT22;10808;48.010;11.326;2023-12-29T02:02:11;8.70;98.80
21298;DHT22;10808;48.010;11.326;2023-12-29T02:04:38;8.80;98.60
21298;DHT22;10808;48.010;11.326;2023-12-29T02:07:05;8.80;98.40
21298;DHT22;10808;48.010;11.326;2023-12-29T02:09:46;8.90;98.20
21298;DHT22;10808;48.010;11.326;2023-12-29T02:12:12;8.90;97.80
21298;DHT22;10808;48.010;11.326;2023-12-29T02:14:38;8.90;97.50
21298;DHT22;10808;48.010;11.326;2023-12-29T02:17:06;9.00;97.50
21298;DHT22;10808;48.010;11.326;2023-12-29T02:19:48;9.00;97.40
21298;DHT22;10808;48.010;11.326;2023-12-29T02:22:21;9.10;97.10
21298;DHT22;10808;48.010;11.326;2023-12-29T02:24:51;9.10;97.00
21298;DHT22;10808;48.010;11.326;2023-12-29T02:27:52;9.10;96.80
21298;DHT22;10808;48.010;11.326;2023-12-29T02:30:38;9.10;96.60
21298;DHT22;10808;48.010;11.326;2023-12-29T02:33:10;9.20;96.40
21298;DHT22;10808;48.010;11.326;2023-12-29T02:35:48;9.20;96.30
21298;DHT22;10808;48.010;11.326;2023-12-29T02:38:17;9.20;96.20
21298;DHT22;10808;48.010;11.326;2023-12-29T02:40:46;9.20;96.00
21298;DHT22;10808;48.010;11.326;2023-12-29T02:43:24;9.30;95.80
21298;DHT22;10808;48.010;11.326;2023-12-29T02:45:51;9.30;95.60
21298;DHT22;10808;48.010;11.326;2023-12-29T02:48:18;9.40;95.50
21298;DHT22;10808;48.010;11.326;2023-12-29T02:50:45;9.40;95.40
21298;DHT22;10808;48.010;11.326;2023-12-29T02:53:11;9.40;95.40
21298;DHT22;10808;48.010;11.326;2023-12-29T02:55:38;9.40;95.30
21298;DHT22;10808;48.010;11.326;2023-12-29T02:58:04;9.40;95.30
21298;DHT22;10808;48.010;11.326;2023-12-29T03:00:30;9.40;95.50
21298;DHT22;10808;48.010;11.326;2023-12-29T03:02:56;9.30;95.90
21298;DHT22;10808;48.010;11.326;2023-12-29T03:05:22;9.20;96.30
21298;DHT22;10808;48.010;11.326;2023-12-29T03:07:48;9.20;96.50
21298;DHT22;10808;48.010;11.326;2023-12-29T03:10:14;9.20;96.60
21298;DHT22;10808;48.010;11.326;2023-12-29T03:12:47;9.20;96.80
21298;DHT22;10808;48.010;11.326;2023-12-29T03:15:13;9.10;97.00
21298;DHT22;10808;48.010;11.326;2023-12-29T03:17:39;9.00;97.00
21298;DHT22;10808;48.010;11.326;2023-12-29T03:20:08;8.90;97.20
21298;DHT22;10808;48.010;11.326;2023-12-29T03:22:36;8.90;97.20
21298;DHT22;10808;48.010;11.326;2023-12-29T03:25:02;8.80;97.40
21298;DHT22;10808;48.010;11.326;2023-12-29T03:27:28;8.70;97.40
21298;DHT22;10808;48.010;11.326;2023-12-29T03:30:00;8.70;97.00
21298;DHT22;10808;48.010;11.326;2023-12-29T03:32:26;8.70;96.80
21298;DHT22;10808;48.010;11.326;2023-12-29T03:34:57;8.70;96.70
21298;DHT22;10808;48.010;11.326;2023-12-29T03:37:23;8.70;96.60
21298;DHT22;10808;48.010;11.326;2023-12-29T03:39:49;8.70;96.50
21298;DHT22;10808;48.010;11.326;2023-12-29T03:42:15;8.90;96.50
21298;DHT22;10808;48.010;11.326;2023-12-29T03:44:41;8.90;96.40
21298;DHT22;10808;48.010;11.326;2023-12-29T03:47:36;8.90;96.30
21298;DHT22;10808;48.010;11.326;2023-12-29T03:50:02;8.80;96.40
21298;DHT22;10808;48.010;11.326;2023-12-29T03:52:29;8.70;96.70
21298;DHT22;10808;48.010;11.326;2023-12-29T03:54:55;8.60;96.90
21298;DHT22;10808;48.010;11.326;2023-12-29T03:57:21;8.60;97.20
21298;DHT22;10808;48.010;11.326;2023-12-29T03:59:47;8.60;97.30
21298;DHT22;10808;48.010;11.326;2023-12-29T04:02:26;8.50;97.30
21298;DHT22;10808;48.010;11.326;2023-12-29T04:04:52;8.50;97.30
21298;DHT22;10808;48.010;11.326;2023-12-29T04:07:26;8.50;97.50
21298;DHT22;10808;48.010;11.326;2023-12-29T04:09:52;8.50;97.70
21298;DHT22;10808;48.010;11.326;2023-12-29T04:12:34;8.50;97.60
21298;DHT22;10808;48.010;11.326;2023-12-29T04:15:02;8.40;97.50
21298;DHT22;10808;48.010;11.326;2023-12-29T04:17:29;8.40;97.60
21298;DHT22;10808;48.010;11.326;2023-12-29T04:20:18;8.40;97.80
21298;DHT22;10808;48.010;11.326;2023-12-29T04:22:59;8.40;97.90
21298;DHT22;10808;48.010;11.326;2023-12-29T04:25:27;8.40;97.50
21298;DHT22;10808;48.010;11.326;2023-12-29T04:27:53;8.30;97.20
21298;DHT22;10808;48.010;11.326;2023-12-29T04:30:19;8.30;97.20
21298;DHT22;10808;48.010;11.326;2023-12-29T04:32:45;8.30;97.50
21298;DHT22;10808;48.010;11.326;2023-12-29T04:35:16;8.40;97.30
21298;DHT22;10808;48.010;11.326;2023-12-29T04:37:46;8.50;97.60
21298;DHT22;10808;48.010;11.326;2023-12-29T04:40:13;8.60;97.50
21298;DHT22;10808;48.010;11.326;2023-12-29T04:42:40;8.70;97.40
21298;DHT22;10808;48.010;11.326;2023-12-29T04:45:06;8.80;97.40
21298;DHT22;10808;48.010;11.326;2023-12-29T04:47:41;8.90;97.50
21298;DHT22;10808;48.010;11.326;2023-12-29T04:50:07;9.00;97.50
21298;DHT22;10808;48.010;11.326;2023-12-29T04:52:33;9.10;97.50
21298;DHT22;10808;48.010;11.326;2023-12-29T04:55:05;9.20;97.60
21298;DHT22;10808;48.010;11.326;2023-12-29T04:57:31;9.30;97.60
21298;DHT22;10808;48.010;11.326;2023-12-29T04:59:57;9.40;97.70
21298;DHT22;10808;48.010;11.326;2023-12-29T05:02:23;9.50;97.40
21298;DHT22;10808;48.010;11.326;2023-12-29T05:04:49;9.50;97.30
21298;DHT22;10808;48.010;11.326;2023-12-29T05:07:15;9.60;97.20
21298;DHT22;10808;48.010;11.326;2023-12-29T05:09:42;9.60;97.00
21298;DHT22;10808;48.010;11.326;2023-12-29T05:12:08;9.70;97.00
21298;DHT22;10808;48.010;11.326;2023-12-29T05:14:34;9.70;96.90
21298;DHT22;10808;48.010;11.326;2023-12-29T05:17:02;9.70;96.70
21298;DHT22;10808;48.010;11.326;2023-12-29T05:19:28;9.80;96.60
21298;DHT22;10808;48.010;11.326;2023-12-29T05:21:54;9.80;96.60
21298;DHT22;10808;48.010;11.326;2023-12-29T05:24:24;9.80;96.40
21298;DHT22;10808;48.010;11.326;2023-12-29T05:26:50;9.80;96.30
21298;DHT22;10808;48.010;11.326;2023-12-29T05:29:16;9.80;96.30
21298;DHT22;10808;48.010;11.326;2023-12-29T05:31:42;9.80;96.20
21298;DHT22;10808;48.010;11.326;2023-12-29T05:34:08;9.80;96.20
21298;DHT22;10808;48.010;11.326;2023-12-29T05:36:35;9.80;96.10
21298;DHT22;10808;48.010;11.326;2023-12-29T05:39:02;9.90;96.10
21298;DHT22;10808;48.010;11.326;2023-12-29T05:41:29;9.80;96.10
21298;DHT22;10808;48.010;11.326;2023-12-29T05:43:55;9.80;96.20
21298;DHT22;10808;48.010;11.326;2023-12-29T05:46:24;9.80;96.20
21298;DHT22;10808;48.010;11.326;2023-12-29T05:48:50;9.80;96.30
21298;DHT22;10808;48.010;11.326;2023-12-29T05:51:18;9.80;96.30
21298;DHT22;10808;48.010;11.326;2023-12-29T05:53:44;9.80;96.30
21298;DHT22;10808;48.010;11.326;2023-12-29T05:56:12;9.80;96.30
21298;DHT22;10808;48.010;11.326;2023-12-29T05:58:40;9.80;96.30
21298;DHT22;10808;48.010;11.326;2023-12-29T06:01:10;9.80;96.40
21298;DHT22;10808;48.010;11.326;2023-12-29T06:03:36;9.90;96.30
21298;DHT22;10808;48.010;11.326;2023-12-29T06:06:03;9.90;96.30
21298;DHT22;10808;48.010;11.326;2023-12-29T06:08:29;9.90;96.20
21298;DHT22;10808;48.010;11.326;2023-12-29T06:10:55;9.90;96.30
21298;DHT22;10808;48.010;11.326;2023-12-29T06:13:22;9.90;96.20
21298;DHT22;10808;48.010;11.326;2023-12-29T06:15:58;9.90;96.10
21298;DHT22;10808;48.010;11.326;2023-12-29T06:18:24;9.90;96.10
21298;DHT22;10808;48.010;11.326;2023-12-29T06:20:50;9.90;96.30
21298;DHT22;10808;48.010;11.326;2023-12-29T06:23:17;9.90;95.80
21298;DHT22;10808;48.010;11.326;2023-12-29T06:25:43;9.90;95.70
21298;DHT22;10808;48.010;11.326;2023-12-29T06:28:09;9.90;95.70
21298;DHT22;10808;48.010;11.326;2023-12-29T06:30:35;9.90;95.60
21298;DHT22;10808;48.010;11.326;2023-12-29T06:33:10;9.90;95.60
21298;DHT22;10808;48.010;11.326;2023-12-29T06:35:36;9.90;95.70
21298;DHT22;10808;48.010;11.326;2023-12-29T06:38:04;9.90;95.90
21298;DHT22;10808;48.010;11.326;2023-12-29T06:40:32;9.90;96.00
21298;DHT22;10808;48.010;11.326;2023-12-29T06:42:58;9.90;96.30
21298;DHT22;10808;48.010;11.326;2023-12-29T06:45:26;9.80;96.80
21298;DHT22;10808;48.010;11.326;2023-12-29T06:47:52;9.80;97.10
21298;DHT22;10808;48.010;11.326;2023-12-29T06:50:18;9.80;97.50
21298;DHT22;10808;48.010;11.326;2023-12-29T06:52:44;9.90;97.90
21298;DHT22;10808;48.010;11.326;2023-12-29T06:55:17;9.80;97.90
21298;DHT22;10808;48.010;11.326;2023-12-29T06:57:43;9.90;98.00
21298;DHT22;10808;48.010;11.326;2023-12-29T07:00:10;9.90;98.40
21298;DHT22;10808;48.010;11.326;2023-12-29T07:02:38;9.90;98.50
21298;DHT22;10808;48.010;11.326;2023-12-29T07:05:05;9.90;98.70
21298;DHT22;10808;48.010;11.326;2023-12-29T07:07:31;9.90;98.70
21298;DHT22;10808;48.010;11.326;2023-12-29T07:10:04;9.90;98.80
21298;DHT22;10808;48.010;11.326;2023-12-29T07:12:31;9.90;99.00
21298;DHT22;10808;48.010;11.326;2023-12-29T07:14:57;9.90;99.00
21298;DHT22;10808;48.010;11.326;2023-12-29T07:17:31;9.90;99.10
21298;DHT22;10808;48.010;11.326;2023-12-29T07:19:57;9.90;99.30
21298;DHT22;10808;48.010;11.326;2023-12-29T07:22:23;9.90;99.50
21298;DHT22;10808;48.010;11.326;2023-12-29T07:24:53;9.90;99.80
21298;DHT22;10808;48.010;11.326;2023-12-29T07:27:24;9.90;99.90
21298;DHT22;10808;48.010;11.326;2023-12-29T07:29:56;9.90;99.90
21298;DHT22;10808;48.010;11.326;2023-12-29T07:32:23;9.90;99.90
21298;DHT22;10808;48.010;11.326;2023-12-29T07:34:49;9.90;99.90
21298;DHT22;10808;48.010;11.326;2023-12-29T07:37:15;9.90;99.90
21298;DHT22;10808;48.010;11.326;2023-12-29T07:39:41;9.90;99.90
21298;DHT22;10808;48.010;11.326;2023-12-29T07:42:07;9.90;99.90
21298;DHT22;10808;48.010;11.326;2023-12-29T07:44:33;9.90;99.90
21298;DHT22;10808;48.010;11.326;2023-12-29T07:46:59;9.90;99.90
21298;DHT22;10808;48.010;11.326;2023-12-29T07:49:25;9.90;99.90
21298;DHT22;10808;48.010;11.326;2023-12-29T07:51:51;9.90;99.90
21298;DHT22;10808;48.010;11.326;2023-12-29T07:54:17;9.80;99.90
21298;DHT22;10808;48.010;11.326;2023-12-29T07:56:43;9.80;99.90
21298;DHT22;10808;48.010;11.326;2023-12-29T07:59:09;9.80;99.90
21298;DHT22;10808;48.010;11.326;2023-12-29T08:01:35;9.80;99.90
21298;DHT22;10808;48.010;11.326;2023-12-29T08:04:03;9.80;99.90
21298;DHT22;10808;48.010;11.326;2023-12-29T08:06:29;9.90;99.90
21298;DHT22;10808;48.010;11.326;2023-12-29T08:08:55;9.80;99.90
21298;DHT22;10808;48.010;11.326;2023-12-29T08:11:21;9.80;99.90
21298;DHT22;10808;48.010;11.326;2023-12-29T08:13:48;9.80;99.90
21298;DHT22;10808;48.010;11.326;2023-12-29T08:16:16;9.80;99.90
21298;DHT22;10808;48.010;11.326;2023-12-29T08:18:46;9.80;99.90
21298;DHT22;10808;48.010;11.326;2023-12-29T08:21:17;9.90;99.90
21298;DHT22;10808;48.010;11.326;2023-12-29T08:23:44;9.90;99.90
21298;DHT22;10808;48.010;11.326;2023-12-29T08:26:10;9.90;99.90
21298;DHT22;10808;48.010;11.326;2023-12-29T08:28:36;9.80;99.90
21298;DHT22;10808;48.010;11.326;2023-12-29T08:31:03;9.90;99.90
21298;DHT22;10808;48.010;11.326;2023-12-29T08:33:29;9.90;99.90
21298;DHT22;10808;48.010;11.326;2023-12-29T08:35:55;10.00;99.90
21298;DHT22;10808;48.010;11.326;2023-12-29T08:38:26;10.00;99.90
21298;DHT22;10808;48.010;11.326;2023-12-29T08:40:53;10.00;99.90
21298;DHT22;10808;48.010;11.326;2023-12-29T08:43:19;10.00;99.90
21298;DHT22;10808;48.010;11.326;2023-12-29T08:45:47;10.00;99.90
21298;DHT22;10808;48.010;11.326;2023-12-29T08:48:13;10.10;99.90
21298;DHT22;10808;48.010;11.326;2023-12-29T08:50:39;10.10;99.90
21298;DHT22;10808;48.010;11.326;2023-12-29T08:53:05;10.10;99.90
21298;DHT22;10808;48.010;11.326;2023-12-29T08:55:31;10.10;99.90
21298;DHT22;10808;48.010;11.326;2023-12-29T08:57:59;10.10;99.90
21298;DHT22;10808;48.010;11.326;2023-12-29T09:00:25;10.20;99.90
21298;DHT22;10808;48.010;11.326;2023-12-29T09:02:51;10.20;99.90
21298;DHT22;10808;48.010;11.326;2023-12-29T09:05:18;10.20;99.90
21298;DHT22;10808;48.010;11.326;2023-12-29T09:07:43;10.30;99.90
21298;DHT22;10808;48.010;11.326;2023-12-29T09:10:10;10.30;99.90
21298;DHT22;10808;48.010;11.326;2023-12-29T09:12:39;10.30;99.90
21298;DHT22;10808;48.010;11.326;2023-12-29T09:15:06;10.30;99.90
21298;DHT22;10808;48.010;11.326;2023-12-29T09:17:33;10.40;99.90
21298;DHT22;10808;48.010;11.326;2023-12-29T09:19:59;10.40;99.90
21298;DHT22;10808;48.010;11.326;2023-12-29T09:22:25;10.40;99.90
21298;DHT22;10808;48.010;11.326;2023-12-29T09:24:51;10.40;99.90
21298;DHT22;10808;48.010;11.326;2023-12-29T09:27:17;10.50;99.90
21298;DHT22;10808;48.010;11.326;2023-12-29T09:29:43;10.50;99.90
21298;DHT22;10808;48.010;11.326;2023-12-29T09:32:09;10.50;99.90
21298;DHT22;10808;48.010;11.326;2023-12-29T09:34:35;10.60;99.90
21298;DHT22;10808;48.010;11.326;2023-12-29T09:37:01;10.60;99.90
21298;DHT22;10808;48.010;11.326;2023-12-29T09:39:27;10.60;99.90
21298;DHT22;10808;48.010;11.326;2023-12-29T09:41:58;10.60;99.90
21298;DHT22;10808;48.010;11.326;2023-12-29T09:44:24;10.60;99.90
21298;DHT22;10808;48.010;11.326;2023-12-29T09:46:53;10.60;99.90
21298;DHT22;10808;48.010;11.326;2023-12-29T09:49:20;10.60;99.90
21298;DHT22;10808;48.010;11.326;2023-12-29T09:51:47;10.70;99.90
21298;DHT22;10808;48.010;11.326;2023-12-29T09:54:15;10.60;99.90
21298;DHT22;10808;48.010;11.326;2023-12-29T09:56:41;10.70;99.90
21298;DHT22;10808;48.010;11.326;2023-12-29T09:59:10;10.70;99.90
21298;DHT22;10808;48.010;11.326;2023-12-29T10:01:37;10.70;99.90
21298;DHT22;10808;48.010;11.326;2023-12-29T10:04:04;10.80;99.90
21298;DHT22;10808;48.010;11.326;2023-12-29T10:06:34;10.80;99.90
21298;DHT22;10808;48.010;11.326;2023-12-29T10:09:03;10.80;99.90
21298;DHT22;10808;48.010;11.326;2023-12-29T10:11:35;10.80;99.90
21298;DHT22;10808;48.010;11.326;2023-12-29T10:14:15;10.80;99.90
21298;DHT22;10808;48.010;11.326;2023-12-29T10:16:46;10.90;99.90
21298;DHT22;10808;48.010;11.326;2023-12-29T10:19:37;10.90;99.90
21298;DHT22;10808;48.010;11.326;2023-12-29T10:24:52;11.00;99.90
21298;DHT22;10808;48.010;11.326;2023-12-29T10:27:18;11.00;99.90
21298;DHT22;10808;48.010;11.326;2023-12-29T10:29:44;11.00;99.90
21298;DHT22;10808;48.010;11.326;2023-12-29T10:32:10;11.10;99.90
21298;DHT22;10808;48.010;11.326;2023-12-29T10:34:36;11.10;99.90
21298;DHT22;10808;48.010;11.326;2023-12-29T10:37:03;11.20;99.90
21298;DHT22;10808;48.010;11.326;2023-12-29T10:39:37;11.20;99.90
21298;DHT22;10808;48.010;11.326;2023-12-29T10:42:07;11.20;99.90
21298;DHT22;10808;48.010;11.326;2023-12-29T10:44:36;11.30;99.90
21298;DHT22;10808;48.010;11.326;2023-12-29T10:47:09;11.30;99.90
21298;DHT22;10808;48.010;11.326;2023-12-29T10:49:36;11.30;99.90
21298;DHT22;10808;48.010;11.326;2023-12-29T10:52:15;11.30;99.90
21298;DHT22;10808;48.010;11.326;2023-12-29T10:54:42;11.30;99.90
21298;DHT22;10808;48.010;11.326;2023-12-29T10:57:10;11.30;99.90
21298;DHT22;10808;48.010;11.326;2023-12-29T10:59:38;11.30;99.90
21298;DHT22;10808;48.010;11.326;2023-12-29T11:02:04;11.30;99.90
21298;DHT22;10808;48.010;11.326;2023-12-29T11:07:01;11.40;99.90
21298;DHT22;10808;48.010;11.326;2023-12-29T11:09:31;11.40;99.90
21298;DHT22;10808;48.010;11.326;2023-12-29T11:12:03;11.40;99.90
21298;DHT22;10808;48.010;11.326;2023-12-29T11:14:36;11.40;99.90
21298;DHT22;10808;48.010;11.326;2023-12-29T11:17:04;11.50;99.90
21298;DHT22;10808;48.010;11.326;2023-12-29T11:19:32;11.50;99.90
21298;DHT22;10808;48.010;11.326;2023-12-29T11:22:00;11.60;99.90
21298;DHT22;10808;48.010;11.326;2023-12-29T11:24:27;11.60;99.90
21298;DHT22;10808;48.010;11.326;2023-12-29T11:26:53;11.60;99.90
21298;DHT22;10808;48.010;11.326;2023-12-29T11:29:20;11.60;99.90
21298;DHT22;10808;48.010;11.326;2023-12-29T11:31:48;11.70;99.90
21298;DHT22;10808;48.010;11.326;2023-12-29T11:34:26;11.70;99.90
21298;DHT22;10808;48.010;11.326;2023-12-29T11:37:26;11.70;99.90
21298;DHT22;10808;48.010;11.326;2023-12-29T11:42:38;11.80;99.90
21298;DHT22;10808;48.010;11.326;2023-12-29T11:45:31;11.90;99.90
21298;DHT22;10808;48.010;11.326;2023-12-29T11:48:00;11.90;99.90
21298;DHT22;10808;48.010;11.326;2023-12-29T11:50:35;11.90;99.90
21298;DHT22;10808;48.010;11.326;2023-12-29T11:53:07;11.90;99.90
21298;DHT22;10808;48.010;11.326;2023-12-29T11:55:38;11.90;99.90
21298;DHT22;10808;48.010;11.326;2023-12-29T11:58:23;11.90;99.90
21298;DHT22;10808;48.010;11.326;2023-12-29T12:00:49;11.90;99.90
21298;DHT22;10808;48.010;11.326;2023-12-29T12:05:50;11.90;99.90
21298;DHT22;10808;48.010;11.326;2023-12-29T12:08:36;11.90;99.90
21298;DHT22;10808;48.010;11.326;2023-12-29T12:14:01;11.80;99.90
21298;DHT22;10808;48.010;11.326;2023-12-29T12:16:47;11.90;99.90
21298;DHT22;10808;48.010;11.326;2023-12-29T12:19:20;11.90;99.90
21298;DHT22;10808;48.010;11.326;2023-12-29T12:21:53;11.90;99.90
21298;DHT22;10808;48.010;11.326;2023-12-29T12:24:21;11.90;99.90
21298;DHT22;10808;48.010;11.326;2023-12-29T12:26:47;11.90;99.90
21298;DHT22;10808;48.010;11.326;2023-12-29T12:29:13;11.90;99.90
21298;DHT22;10808;48.010;11.326;2023-12-29T12:31:58;11.90;99.90
21298;DHT22;10808;48.010;11.326;2023-12-29T12:34:24;11.90;99.90
21298;DHT22;10808;48.010;11.326;2023-12-29T12:36:51;11.90;99.90
21298;DHT22;10808;48.010;11.326;2023-12-29T12:39:18;11.90;99.90
21298;DHT22;10808;48.010;11.326;2023-12-29T12:41:44;11.90;99.90
21298;DHT22;10808;48.010;11.326;2023-12-29T12:44:12;11.90;99.90
21298;DHT22;10808;48.010;11.326;2023-12-29T12:46:49;11.90;99.90
21298;DHT22;10808;48.010;11.326;2023-12-29T12:49:17;11.90;99.90
21298;DHT22;10808;48.010;11.326;2023-12-29T12:51:44;12.00;99.90
21298;DHT22;10808;48.010;11.326;2023-12-29T12:54:10;12.10;99.90
21298;DHT22;10808;48.010;11.326;2023-12-29T12:56:37;12.00;99.90
21298;DHT22;10808;48.010;11.326;2023-12-29T12:59:03;12.00;99.90
21298;DHT22;10808;48.010;11.326;2023-12-29T13:01:34;12.00;99.90
21298;DHT22;10808;48.010;11.326;2023-12-29T13:04:03;12.10;99.90
21298;DHT22;10808;48.010;11.326;2023-12-29T13:06:30;12.10;99.90
21298;DHT22;10808;48.010;11.326;2023-12-29T13:09:04;12.00;99.90
21298;DHT22;10808;48.010;11.326;2023-12-29T13:11:34;12.10;99.90
21298;DHT22;10808;48.010;11.326;2023-12-29T13:14:01;12.10;99.90
21298;DHT22;10808;48.010;11.326;2023-12-29T13:16:35;12.10;99.90
21298;DHT22;10808;48.010;11.326;2023-12-29T13:21:48;12.00;99.90
21298;DHT22;10808;48.010;11.326;2023-12-29T13:24:17;12.00;99.90
21298;DHT22;10808;48.010;11.326;2023-12-29T13:26:45;12.00;99.90
21298;DHT22;10808;48.010;11.326;2023-12-29T13:29:14;12.00;99.90
21298;DHT22;10808;48.010;11.326;2023-12-29T13:31:41;12.10;99.90
21298;DHT22;10808;48.010;11.326;2023-12-29T13:34:21;12.00;99.90
21298;DHT22;10808;48.010;11.326;2023-12-29T13:37:00;12.00;99.90
21298;DHT22;10808;48.010;11.326;2023-12-29T13:39:36;12.00;99.90
21298;DHT22;10808;48.010;11.326;2023-12-29T13:42:04;12.00;99.90
21298;DHT22;10808;48.010;11.326;2023-12-29T13:44:38;12.00;99.90
21298;DHT22;10808;48.010;11.326;2023-12-29T13:47:06;12.00;99.90
21298;DHT22;10808;48.010;11.326;2023-12-29T13:49:32;12.10;99.90
21298;DHT22;10808;48.010;11.326;2023-12-29T13:52:05;12.10;99.90
21298;DHT22;10808;48.010;11.326;2023-12-29T13:54:41;12.00;99.90
21298;DHT22;10808;48.010;11.326;2023-12-29T13:57:08;12.10;99.90
21298;DHT22;10808;48.010;11.326;2023-12-29T13:59:34;12.00;99.80
21298;DHT22;10808;48.010;11.326;2023-12-29T14:02:20;11.90;99.80
21298;DHT22;10808;48.010;11.326;2023-12-29T14:04:48;11.90;99.80
21298;DHT22;10808;48.010;11.326;2023-12-29T14:07:15;11.90;99.80
21298;DHT22;10808;48.010;11.326;2023-12-29T14:09:45;11.90;99.90
21298;DHT22;10808;48.010;11.326;2023-12-29T14:12:11;11.90;99.90
21298;DHT22;10808;48.010;11.326;2023-12-29T14:14:37;11.90;99.90
21298;DHT22;10808;48.010;11.326;2023-12-29T14:17:03;11.90;99.80
21298;DHT22;10808;48.010;11.326;2023-12-29T14:19:37;11.90;99.90
21298;DHT22;10808;48.010;11.326;2023-12-29T14:22:04;11.80;99.90
21298;DHT22;10808;48.010;11.326;2023-12-29T14:24:30;11.80;99.90
21298;DHT22;10808;48.010;11.326;2023-12-29T14:26:56;11.80;99.80
21298;DHT22;10808;48.010;11.326;2023-12-29T14:29:23;11.80;99.80
21298;DHT22;10808;48.010;11.326;2023-12-29T14:31:50;11.80;99.70
21298;DHT22;10808;48.010;11.326;2023-12-29T14:34:20;11.80;99.70
21298;DHT22;10808;48.010;11.326;2023-12-29T14:36:46;11.80;99.70
21298;DHT22;10808;48.010;11.326;2023-12-29T14:39:12;11.70;99.70
21298;DHT22;10808;48.010;11.326;2023-12-29T14:41:39;11.70;99.70
21298;DHT22;10808;48.010;11.326;2023-12-29T14:44:05;11.60;99.60
21298;DHT22;10808;48.010;11.326;2023-12-29T14:46:31;11.60;99.60
21298;DHT22;10808;48.010;11.326;2023-12-29T14:49:00;11.60;99.60
21298;DHT22;10808;48.010;11.326;2023-12-29T14:51:26;11.60;99.60
21298;DHT22;10808;48.010;11.326;2023-12-29T14:53:52;11.60;99.60
21298;DHT22;10808;48.010;11.326;2023-12-29T14:56:18;11.60;99.70
21298;DHT22;10808;48.010;11.326;2023-12-29T14:58:44;11.60;99.70
21298;DHT22;10808;48.010;11.326;2023-12-29T15:01:11;11.60;99.70
21298;DHT22;10808;48.010;11.326;2023-12-29T15:03:37;11.50;99.70
21298;DHT22;10808;48.010;11.326;2023-12-29T15:06:04;11.60;99.70
21298;DHT22;10808;48.010;11.326;2023-12-29T15:08:30;11.50;99.70
21298;DHT22;10808;48.010;11.326;2023-12-29T15:11:06;11.40;99.70
21298;DHT22;10808;48.010;11.326;2023-12-29T15:13:34;11.50;99.80
21298;DHT22;10808;48.010;11.326;2023-12-29T15:16:02;11.50;99.80
21298;DHT22;10808;48.010;11.326;2023-12-29T15:18:30;11.40;99.80
21298;DHT22;10808;48.010;11.326;2023-12-29T15:20:59;11.40;99.80
21298;DHT22;10808;48.010;11.326;2023-12-29T15:23:25;11.40;99.80
21298;DHT22;10808;48.010;11.326;2023-12-29T15:25:53;11.30;99.70
21298;DHT22;10808;48.010;11.326;2023-12-29T15:28:19;11.30;99.80
21298;DHT22;10808;48.010;11.326;2023-12-29T15:30:45;11.30;99.80
21298;DHT22;10808;48.010;11.326;2023-12-29T15:33:12;11.20;99.70
21298;DHT22;10808;48.010;11.326;2023-12-29T15:35:39;11.20;99.70
21298;DHT22;10808;48.010;11.326;2023-12-29T15:38:06;11.20;99.80
21298;DHT22;10808;48.010;11.326;2023-12-29T15:40:32;11.20;99.70
21298;DHT22;10808;48.010;11.326;2023-12-29T15:42:58;11.20;99.70
21298;DHT22;10808;48.010;11.326;2023-12-29T15:45:24;11.20;99.80
21298;DHT22;10808;48.010;11.326;2023-12-29T15:47:50;11.20;99.80
21298;DHT22;10808;48.010;11.326;2023-12-29T15:50:16;11.10;99.70